Time;durP1;ratioP1;P1;durP2;ratioP2;P2;SDS_P1;SDS_P2;PMS_P1;PMS_P2;Temp;Humidity;BMP_temperature;BMP_pressure;BME280_temperature;BME280_humidity;BME280_pressure;Samples;Min_cycle;Max_cycle;Signal;HPM_P1;HPM_P2
2023/01/21 00:02:14;;;;;;;49.83;20.87;;;;;;;;;;6070931;23;20227;-90
2023/01/21 00:05:19;;;;;;;44.93;19.77;;;;;;;;;;6070285;23;20174;-90
2023/01/21 00:08:26;;;;;;;48.90;20.40;;;;;;;;;;6067551;23;20171;-89
2023/01/21 00:11:37;;;;;;;48.07;20.03;;;;;;;;;;6067099;23;20654;-90
2023/01/21 00:14:42;;;;;;;45.23;19.73;;;;;;;;;;6068094;23;20211;-90
2023/01/21 00:17:50;;;;;;;58.23;25.17;;;;;;;;;;6073464;23;20174;-91
2023/01/21 00:20:55;;;;;;;49.57;19.93;;;;;;;;;;6074126;23;20170;-90
2023/01/21 00:24:00;;;;;;;44.07;18.97;;;;;;;;;;6090393;23;20174;-90
2023/01/21 00:27:08;;;;;;;47.67;19.93;;;;;;;;;;6073735;23;20193;-91
2023/01/21 00:30:15;;;;;;;42.97;18.30;;;;;;;;;;6074290;23;20178;-90
2023/01/21 00:33:22;;;;;;;38.30;17.00;;;;;;;;;;6073649;23;20223;-90
2023/01/21 00:36:29;;;;;;;46.33;18.23;;;;;;;;;;6074351;23;20359;-89
2023/01/21 00:39:34;;;;;;;43.40;18.10;;;;;;;;;;6074869;23;20228;-90
2023/01/21 00:42:39;;;;;;;42.67;17.57;;;;;;;;;;6074673;23;20174;-88
2023/01/21 00:45:45;;;;;;;41.60;17.03;;;;;;;;;;6073686;23;20200;-92
2023/01/21 00:48:54;;;;;;;41.53;17.20;;;;;;;;;;6074115;23;20174;-90
2023/01/21 00:52:00;;;;;;;35.53;15.50;;;;;;;;;;6073842;23;20235;-90
2023/01/21 00:55:06;;;;;;;37.57;15.77;;;;;;;;;;6073438;23;20211;-92
2023/01/21 00:58:12;;;;;;;41.10;17.03;;;;;;;;;;6073151;23;20163;-91
2023/01/21 01:01:25;;;;;;;36.87;16.20;;;;;;;;;;6073494;23;20223;-90
2023/01/21 01:04:35;;;;;;;41.80;16.13;;;;;;;;;;6072881;23;20174;-91
2023/01/21 01:07:42;;;;;;;34.93;15.80;;;;;;;;;;6072970;23;20154;-91
2023/01/21 01:10:48;;;;;;;35.50;15.67;;;;;;;;;;6073808;23;20166;-91
2023/01/21 01:13:57;;;;;;;40.30;16.63;;;;;;;;;;6072945;23;20223;-90
2023/01/21 01:17:03;;;;;;;38.43;15.87;;;;;;;;;;6072159;23;20171;-91
2023/01/21 01:20:12;;;;;;;38.17;15.70;;;;;;;;;;6072050;23;20183;-91
2023/01/21 01:23:17;;;;;;;32.67;14.87;;;;;;;;;;6073590;23;20175;-90
2023/01/21 01:26:24;;;;;;;32.90;14.33;;;;;;;;;;6074943;23;20213;-89
2023/01/21 01:29:30;;;;;;;35.43;14.80;;;;;;;;;;6073461;23;20175;-90
2023/01/21 01:32:36;;;;;;;32.43;14.23;;;;;;;;;;6070969;23;20258;-90
2023/01/21 01:35:45;;;;;;;30.57;12.93;;;;;;;;;;6071903;23;20200;-91
2023/01/21 01:38:55;;;;;;;29.00;13.53;;;;;;;;;;6072945;23;20260;-91
2023/01/21 01:42:02;;;;;;;33.47;14.90;;;;;;;;;;6068591;23;20187;-90
2023/01/21 01:45:08;;;;;;;29.60;13.07;;;;;;;;;;6068854;23;20200;-88
2023/01/21 01:48:16;;;;;;;28.37;13.43;;;;;;;;;;6067479;23;20228;-90
2023/01/21 01:51:24;;;;;;;31.53;13.40;;;;;;;;;;6067868;23;20177;-89
2023/01/21 01:54:30;;;;;;;25.80;11.97;;;;;;;;;;6067755;23;20246;-90
2023/01/21 01:57:38;;;;;;;29.07;12.37;;;;;;;;;;6067662;23;20235;-87
2023/01/21 02:00:43;;;;;;;29.77;13.47;;;;;;;;;;6065995;23;20171;-89
2023/01/21 02:03:57;;;;;;;28.10;12.90;;;;;;;;;;6067657;23;20186;-89
2023/01/21 02:07:04;;;;;;;31.13;12.97;;;;;;;;;;6063636;23;20178;-91
2023/01/21 02:10:10;;;;;;;26.63;12.87;;;;;;;;;;6064792;23;20171;-93
2023/01/21 02:13:16;;;;;;;26.13;11.80;;;;;;;;;;6062349;23;20729;-91
2023/01/21 02:16:34;;;;;;;26.77;12.37;;;;;;;;;;6064103;23;20174;-92
2023/01/21 02:19:48;;;;;;;32.30;12.50;;;;;;;;;;6064653;23;20154;-90
2023/01/21 02:22:59;;;;;;;26.00;11.90;;;;;;;;;;6063041;23;20178;-90
2023/01/21 02:26:29;;;;;;;28.47;13.10;;;;;;;;;;6061525;23;20170;-89
2023/01/21 02:30:02;;;;;;;28.40;12.80;;;;;;;;;;6063117;23;20170;-89
2023/01/21 02:33:17;;;;;;;28.43;11.90;;;;;;;;;;6045371;23;20218;-91
2023/01/21 02:36:35;;;;;;;29.30;12.07;;;;;;;;;;6063364;23;20173;-90
2023/01/21 02:39:57;;;;;;;26.10;11.80;;;;;;;;;;6063553;23;20174;-89
2023/01/21 02:43:07;;;;;;;28.10;12.37;;;;;;;;;;6063554;23;20175;-92
2023/01/21 02:46:14;;;;;;;27.60;12.50;;;;;;;;;;6063589;23;20187;-89
2023/01/21 02:49:23;;;;;;;27.83;12.40;;;;;;;;;;6063257;23;20229;-90
2023/01/21 02:52:29;;;;;;;27.60;12.03;;;;;;;;;;6063918;23;20195;-89
2023/01/21 02:55:36;;;;;;;29.57;12.53;;;;;;;;;;6065252;23;20250;-90
2023/01/21 02:58:44;;;;;;;29.53;12.37;;;;;;;;;;6065789;23;20175;-90
2023/01/21 03:01:55;;;;;;;23.83;11.87;;;;;;;;;;6065516;23;20174;-90
2023/01/21 03:05:08;;;;;;;28.77;11.87;;;;;;;;;;6063716;23;20226;-89
2023/01/21 03:08:18;;;;;;;25.73;11.50;;;;;;;;;;6062832;23;20618;-90
2023/01/21 03:11:24;;;;;;;26.60;12.00;;;;;;;;;;6063867;23;20248;-89
2023/01/21 03:17:56;;;;;;;27.03;12.10;;;;;;;;;;6065724;23;20179;-90
2023/01/21 03:21:04;;;;;;;25.83;11.23;;;;;;;;;;6065832;23;20183;-92
2023/01/21 03:24:11;;;;;;;27.20;11.30;;;;;;;;;;6066229;23;20227;-91
2023/01/21 03:27:18;;;;;;;22.53;10.47;;;;;;;;;;6065669;23;20228;-89
2023/01/21 03:30:24;;;;;;;26.67;11.43;;;;;;;;;;6065551;23;20170;-91
2023/01/21 03:33:32;;;;;;;25.80;10.80;;;;;;;;;;6065714;23;20215;-89
2023/01/21 03:36:45;;;;;;;23.90;10.77;;;;;;;;;;6064784;23;20623;-89
2023/01/21 03:39:55;;;;;;;26.43;10.80;;;;;;;;;;6064069;23;20178;-88
2023/01/21 03:43:01;;;;;;;24.17;9.73;;;;;;;;;;6065420;23;20178;-92
2023/01/21 03:46:09;;;;;;;20.93;9.53;;;;;;;;;;6066479;23;20235;-92
2023/01/21 03:49:17;;;;;;;28.17;10.87;;;;;;;;;;6064548;23;20170;-90
2023/01/21 03:52:25;;;;;;;25.10;10.70;;;;;;;;;;6064666;23;20194;-90
2023/01/21 03:55:30;;;;;;;23.70;9.63;;;;;;;;;;6064284;23;20198;-91
2023/01/21 03:58:36;;;;;;;28.33;9.70;;;;;;;;;;6064403;23;20171;-92
2023/01/21 04:01:41;;;;;;;25.13;9.60;;;;;;;;;;6065600;23;20287;-92
2023/01/21 04:04:47;;;;;;;20.43;8.97;;;;;;;;;;6065226;23;20170;-91
2023/01/21 04:07:53;;;;;;;23.57;9.30;;;;;;;;;;6064640;23;20167;-91
2023/01/21 04:11:41;;;;;;;21.53;8.30;;;;;;;;;;6064133;23;20515;-88
2023/01/21 04:14:47;;;;;;;21.90;8.97;;;;;;;;;;6069305;23;20243;-92
2023/01/21 04:17:52;;;;;;;22.37;8.37;;;;;;;;;;6066105;23;20167;-90
2023/01/21 04:20:57;;;;;;;17.80;8.60;;;;;;;;;;6065635;23;20182;-91
2023/01/21 04:24:05;;;;;;;19.67;8.17;;;;;;;;;;6063672;23;20182;-91
2023/01/21 04:27:11;;;;;;;18.93;7.97;;;;;;;;;;6063789;23;20151;-90
2023/01/21 04:30:16;;;;;;;17.33;7.27;;;;;;;;;;6064443;23;20167;-92
2023/01/21 04:33:21;;;;;;;18.33;7.30;;;;;;;;;;6064484;23;20205;-90
2023/01/21 04:36:26;;;;;;;17.73;7.77;;;;;;;;;;6064078;23;20521;-91
2023/01/21 04:39:33;;;;;;;17.23;7.37;;;;;;;;;;6062763;23;20178;-89
2023/01/21 04:42:39;;;;;;;18.93;7.93;;;;;;;;;;6063032;23;20168;-90
2023/01/21 04:45:44;;;;;;;17.23;6.87;;;;;;;;;;6063880;23;20170;-91
2023/01/21 04:48:51;;;;;;;15.40;6.97;;;;;;;;;;6063042;23;20175;-90
2023/01/21 04:51:56;;;;;;;16.67;6.43;;;;;;;;;;6064613;23;20240;-88
2023/01/21 04:55:02;;;;;;;19.17;7.07;;;;;;;;;;6063035;23;20198;-90
2023/01/21 04:58:07;;;;;;;15.90;6.90;;;;;;;;;;6063513;23;20182;-89
2023/01/21 05:01:12;;;;;;;16.90;6.90;;;;;;;;;;6064357;23;20242;-91
2023/01/21 05:04:17;;;;;;;16.77;6.67;;;;;;;;;;6064044;23;20169;-93
2023/01/21 05:07:22;;;;;;;17.40;6.83;;;;;;;;;;6064205;23;20618;-89
2023/01/21 05:10:29;;;;;;;22.10;8.10;;;;;;;;;;6065241;23;20178;-91
2023/01/21 05:13:34;;;;;;;17.53;7.13;;;;;;;;;;6063841;23;20193;-88
2023/01/21 05:16:39;;;;;;;14.33;7.10;;;;;;;;;;6064687;23;20178;-90
2023/01/21 05:19:44;;;;;;;18.80;6.97;;;;;;;;;;6065821;23;20683;-92
2023/01/21 05:22:49;;;;;;;16.07;6.73;;;;;;;;;;6065261;23;20242;-92
2023/01/21 05:25:56;;;;;;;14.13;6.53;;;;;;;;;;6064253;23;20299;-90
2023/01/21 05:29:01;;;;;;;18.80;7.03;;;;;;;;;;6063428;23;20215;-89
2023/01/21 05:32:07;;;;;;;16.13;6.97;;;;;;;;;;6063924;23;20174;-92
2023/01/21 05:35:12;;;;;;;19.57;7.00;;;;;;;;;;6064054;23;20154;-92
2023/01/21 05:38:18;;;;;;;17.50;6.90;;;;;;;;;;6064260;23;20211;-90
2023/01/21 05:41:24;;;;;;;18.97;7.37;;;;;;;;;;6063427;23;20174;-90
2023/01/21 05:44:29;;;;;;;19.77;7.47;;;;;;;;;;6063110;23;20179;-88
2023/01/21 05:47:34;;;;;;;16.90;7.23;;;;;;;;;;6064072;23;20175;-90
2023/01/21 05:50:41;;;;;;;21.70;7.83;;;;;;;;;;6063545;23;20222;-91
2023/01/21 05:53:46;;;;;;;22.40;8.50;;;;;;;;;;6062397;23;20197;-90
2023/01/21 05:56:52;;;;;;;21.00;7.73;;;;;;;;;;6063144;23;20250;-91
2023/01/21 05:59:57;;;;;;;22.43;8.47;;;;;;;;;;6080353;23;20170;-90
2023/01/21 06:03:04;;;;;;;20.30;7.63;;;;;;;;;;6062278;23;20228;-90
2023/01/21 06:06:09;;;;;;;18.63;7.93;;;;;;;;;;6065445;23;20175;-90
2023/01/21 06:09:14;;;;;;;21.20;7.97;;;;;;;;;;6065393;23;20222;-88
2023/01/21 06:12:23;;;;;;;21.90;7.80;;;;;;;;;;6082373;23;20177;-89
2023/01/21 06:15:28;;;;;;;16.67;7.37;;;;;;;;;;6066446;23;20182;-89
2023/01/21 06:18:34;;;;;;;20.57;7.63;;;;;;;;;;6062247;23;20174;-87
2023/01/21 06:21:39;;;;;;;19.20;8.27;;;;;;;;;;6066868;23;20188;-89
2023/01/21 06:24:45;;;;;;;19.17;7.37;;;;;;;;;;6064441;23;20179;-90
2023/01/21 06:27:52;;;;;;;18.33;8.53;;;;;;;;;;6066245;23;20174;-89
2023/01/21 06:30:57;;;;;;;30.13;12.47;;;;;;;;;;6065922;23;20169;-90
2023/01/21 06:34:02;;;;;;;20.33;8.60;;;;;;;;;;6065652;23;20274;-91
2023/01/21 06:37:07;;;;;;;20.80;8.67;;;;;;;;;;6065197;23;20154;-92
2023/01/21 06:40:13;;;;;;;20.17;8.80;;;;;;;;;;6064183;23;20287;-91
2023/01/21 06:43:20;;;;;;;21.27;8.57;;;;;;;;;;6065425;23;20174;-89
2023/01/21 06:46:25;;;;;;;20.67;8.83;;;;;;;;;;6063883;23;20166;-94
2023/01/21 06:49:30;;;;;;;21.63;8.20;;;;;;;;;;6063361;23;20178;-91
2023/01/21 06:52:35;;;;;;;26.73;9.83;;;;;;;;;;6065692;23;20183;-90
2023/01/21 06:55:41;;;;;;;22.13;9.17;;;;;;;;;;6064346;23;20197;-90
2023/01/21 06:58:47;;;;;;;20.30;9.00;;;;;;;;;;6065451;23;20502;-90
2023/01/21 07:01:53;;;;;;;20.30;8.87;;;;;;;;;;6066790;23;20219;-90
2023/01/21 07:04:59;;;;;;;26.53;9.23;;;;;;;;;;6066450;23;20211;-92
2023/01/21 07:08:04;;;;;;;17.73;8.30;;;;;;;;;;6062096;23;20236;-88
2023/01/21 07:11:11;;;;;;;22.03;7.93;;;;;;;;;;6062623;23;20170;-91
2023/01/21 07:14:18;;;;;;;21.37;8.63;;;;;;;;;;6071173;23;20221;-92
2023/01/21 07:17:23;;;;;;;22.23;8.40;;;;;;;;;;6063341;23;20420;-91
2023/01/21 07:20:28;;;;;;;20.47;7.73;;;;;;;;;;6062546;23;20224;-91
2023/01/21 07:23:33;;;;;;;19.87;7.00;;;;;;;;;;6063873;23;20287;-89
2023/01/21 07:26:40;;;;;;;19.27;7.57;;;;;;;;;;6063341;23;20166;-89
2023/01/21 07:29:47;;;;;;;21.33;7.93;;;;;;;;;;6062443;23;20171;-92
2023/01/21 07:32:52;;;;;;;24.13;7.10;;;;;;;;;;6064453;23;20171;-90
2023/01/21 07:35:57;;;;;;;18.83;7.50;;;;;;;;;;6064107;23;20186;-89
2023/01/21 07:39:06;;;;;;;26.03;7.93;;;;;;;;;;6060671;23;20608;-89
2023/01/21 07:42:11;;;;;;;20.00;7.23;;;;;;;;;;6065933;23;20257;-90
2023/01/21 07:45:18;;;;;;;17.77;7.20;;;;;;;;;;6065288;23;20174;-89
2023/01/21 07:48:24;;;;;;;25.83;8.20;;;;;;;;;;6064585;23;20167;-89
2023/01/21 07:51:29;;;;;;;17.43;7.07;;;;;;;;;;6065978;23;20210;-91
2023/01/21 07:54:34;;;;;;;22.37;8.30;;;;;;;;;;6065118;23;20213;-90
2023/01/21 07:57:40;;;;;;;26.90;8.03;;;;;;;;;;6065600;23;20154;-90
2023/01/21 08:00:48;;;;;;;22.60;8.73;;;;;;;;;;6066175;23;20221;-91
2023/01/21 08:03:53;;;;;;;17.47;7.40;;;;;;;;;;6066236;23;20561;-89
2023/01/21 08:07:00;;;;;;;16.10;6.90;;;;;;;;;;6068004;23;20218;-92
2023/01/21 08:10:06;;;;;;;16.90;7.10;;;;;;;;;;6065567;23;20172;-90
2023/01/21 08:13:11;;;;;;;14.87;6.83;;;;;;;;;;6065751;23;20171;-90
2023/01/21 08:16:20;;;;;;;20.97;7.10;;;;;;;;;;6065961;23;20170;-92
2023/01/21 08:19:26;;;;;;;21.23;8.67;;;;;;;;;;6066033;23;20174;-90
2023/01/21 08:22:31;;;;;;;16.03;7.03;;;;;;;;;;6065573;23;20270;-92
2023/01/21 08:25:36;;;;;;;19.03;6.93;;;;;;;;;;6063835;23;20174;-89
2023/01/21 08:28:41;;;;;;;15.93;6.37;;;;;;;;;;6065122;23;20685;-89
2023/01/21 08:31:48;;;;;;;18.30;6.57;;;;;;;;;;6064632;23;20193;-90
2023/01/21 08:34:54;;;;;;;62.33;20.80;;;;;;;;;;6065022;23;20293;-89
2023/01/21 08:37:59;;;;;;;21.90;6.87;;;;;;;;;;6066614;23;20228;-91
2023/01/21 08:41:05;;;;;;;41.40;16.47;;;;;;;;;;6067041;23;20233;-90
2023/01/21 08:44:11;;;;;;;13.87;5.70;;;;;;;;;;6065209;23;20187;-90
2023/01/21 08:47:17;;;;;;;11.67;5.17;;;;;;;;;;6063883;23;20178;-91
2023/01/21 08:50:22;;;;;;;15.40;6.10;;;;;;;;;;6065428;23;20174;-90
2023/01/21 08:53:31;;;;;;;13.33;5.80;;;;;;;;;;6066263;23;20201;-89
2023/01/21 08:56:36;;;;;;;12.60;5.27;;;;;;;;;;6082392;23;20174;-93
2023/01/21 08:59:41;;;;;;;13.60;5.23;;;;;;;;;;6082472;23;20195;-91
2023/01/21 09:02:49;;;;;;;11.70;5.70;;;;;;;;;;6083993;23;20158;-90
2023/01/21 09:05:54;;;;;;;13.80;5.70;;;;;;;;;;6084015;23;20179;-90
2023/01/21 09:09:00;;;;;;;12.97;5.53;;;;;;;;;;6082763;23;20174;-90
2023/01/21 09:12:06;;;;;;;12.63;5.70;;;;;;;;;;6082380;23;20170;-91
2023/01/21 09:15:12;;;;;;;14.17;5.60;;;;;;;;;;6082007;23;20268;-88
2023/01/21 09:18:19;;;;;;;17.47;6.37;;;;;;;;;;6083043;23;20175;-89
2023/01/21 09:21:25;;;;;;;14.43;5.80;;;;;;;;;;6084392;23;20171;-91
2023/01/21 09:24:30;;;;;;;14.10;5.83;;;;;;;;;;6081113;23;20214;-91
2023/01/21 09:27:36;;;;;;;13.37;5.80;;;;;;;;;;6083368;23;20170;-92
2023/01/21 09:30:41;;;;;;;18.37;6.70;;;;;;;;;;6082896;23;20240;-90
2023/01/21 09:33:49;;;;;;;18.07;7.20;;;;;;;;;;6082289;23;20190;-90
2023/01/21 09:36:54;;;;;;;16.50;6.87;;;;;;;;;;6082841;23;20245;-91
2023/01/21 09:40:00;;;;;;;19.70;7.53;;;;;;;;;;6084384;23;20259;-89
2023/01/21 09:43:15;;;;;;;17.73;7.60;;;;;;;;;;6084632;23;20169;-90
2023/01/21 09:46:33;;;;;;;14.23;6.53;;;;;;;;;;6082940;23;20178;-92
2023/01/21 09:49:40;;;;;;;16.97;7.03;;;;;;;;;;6082717;23;20214;-91
2023/01/21 09:52:50;;;;;;;19.03;7.60;;;;;;;;;;6085140;23;20194;-90
2023/01/21 09:55:57;;;;;;;14.50;6.73;;;;;;;;;;6083523;23;20238;-87
2023/01/21 09:59:05;;;;;;;13.97;6.77;;;;;;;;;;6083985;23;20250;-91
2023/01/21 10:02:18;;;;;;;18.63;8.60;;;;;;;;;;6084485;23;20178;-87
2023/01/21 10:05:38;;;;;;;17.07;6.97;;;;;;;;;;6087611;23;20175;-89
2023/01/21 10:08:54;;;;;;;17.13;7.20;;;;;;;;;;6084982;23;20171;-89
2023/01/21 10:12:09;;;;;;;16.57;6.90;;;;;;;;;;6086813;23;20227;-91
2023/01/21 10:15:24;;;;;;;16.07;6.83;;;;;;;;;;6085070;23;20199;-90
2023/01/21 10:18:32;;;;;;;18.53;6.60;;;;;;;;;;6086224;23;20183;-88
2023/01/21 10:21:47;;;;;;;19.07;7.80;;;;;;;;;;6084067;23;20174;-87
2023/01/21 10:24:55;;;;;;;15.53;6.93;;;;;;;;;;6084903;23;20254;-90
2023/01/21 10:28:05;;;;;;;19.50;8.03;;;;;;;;;;6084269;23;20171;-90
2023/01/21 10:31:17;;;;;;;12.40;5.67;;;;;;;;;;6086402;23;20153;-90
2023/01/21 10:34:23;;;;;;;14.87;5.50;;;;;;;;;;6084837;23;20199;-91
2023/01/21 10:37:45;;;;;;;13.83;5.80;;;;;;;;;;6084387;23;20174;-90
2023/01/21 10:40:56;;;;;;;15.33;6.10;;;;;;;;;;6085758;23;20196;-91
2023/01/21 10:44:06;;;;;;;15.13;6.77;;;;;;;;;;6085222;23;20187;-89
2023/01/21 10:50:45;;;;;;;13.93;6.07;;;;;;;;;;6086485;23;20171;-90
2023/01/21 10:54:05;;;;;;;16.87;7.40;;;;;;;;;;6087230;23;20254;-90
2023/01/21 10:57:31;;;;;;;13.40;6.30;;;;;;;;;;6073677;23;20158;-91
2023/01/21 11:00:50;;;;;;;18.53;7.53;;;;;;;;;;6071938;23;20170;-92
2023/01/21 11:04:06;;;;;;;17.77;6.73;;;;;;;;;;6072424;23;20246;-91
2023/01/21 11:07:16;;;;;;;14.20;6.17;;;;;;;;;;6073113;23;20207;-91
2023/01/21 11:14:50;;;;;;;12.67;5.30;;;;;;;;;;6091288;23;20197;-90
2023/01/21 11:17:58;;;;;;;12.63;5.53;;;;;;;;;;6075224;23;20226;-89
2023/01/21 11:21:15;;;;;;;14.57;5.43;;;;;;;;;;6058109;23;20163;-91
2023/01/21 11:24:34;;;;;;;13.10;5.27;;;;;;;;;;6074838;23;20207;-89
2023/01/21 11:27:40;;;;;;;9.47;4.33;;;;;;;;;;6075151;23;20155;-90
2023/01/21 11:30:47;;;;;;;14.33;5.70;;;;;;;;;;6090559;23;20182;-91
2023/01/21 11:37:36;;;;;;;11.17;4.80;;;;;;;;;;6089838;23;20176;-90
2023/01/21 11:40:41;;;;;;;12.73;5.57;;;;;;;;;;6073111;23;20192;-89
2023/01/21 11:43:52;;;;;;;12.03;5.10;;;;;;;;;;6091645;23;20150;-92
2023/01/21 11:47:01;;;;;;;8.87;4.33;;;;;;;;;;6090478;23;20175;-91
2023/01/21 11:50:18;;;;;;;11.30;5.23;;;;;;;;;;6073775;23;20191;-90
2023/01/21 11:53:24;;;;;;;13.23;5.37;;;;;;;;;;6067221;23;20207;-91
2023/01/21 11:56:33;;;;;;;11.73;5.50;;;;;;;;;;6088157;23;20688;-91
2023/01/21 11:59:40;;;;;;;11.30;5.17;;;;;;;;;;6089648;23;20264;-90
2023/01/21 12:02:50;;;;;;;10.07;4.77;;;;;;;;;;6089532;23;20278;-90
2023/01/21 12:06:00;;;;;;;11.37;4.47;;;;;;;;;;6091169;23;20195;-92
2023/01/21 12:09:07;;;;;;;11.00;4.50;;;;;;;;;;6090921;23;20170;-90
2023/01/21 12:15:53;;;;;;;14.57;4.77;;;;;;;;;;6085365;23;20585;-88
2023/01/21 12:19:20;;;;;;;12.27;4.07;;;;;;;;;;6086199;23;20166;-90
2023/01/21 12:22:31;;;;;;;9.87;4.23;;;;;;;;;;6084805;23;20223;-91
2023/01/21 13:39:08;;;;;;;14.67;5.10;;;;;;;;;;6131619;22;2007935;-92
2023/01/21 13:42:26;;;;;;;10.77;4.50;;;;;;;;;;6191217;23;20170;-92
2023/01/21 13:45:36;;;;;;;8.87;4.33;;;;;;;;;;6192604;23;20169;-91
2023/01/21 13:48:49;;;;;;;11.37;4.63;;;;;;;;;;6187407;23;20175;-91
2023/01/21 13:51:58;;;;;;;11.63;5.10;;;;;;;;;;6183974;23;20201;-89
2023/01/21 13:55:23;;;;;;;16.80;6.83;;;;;;;;;;6186799;23;20176;-91
2023/01/21 13:58:34;;;;;;;16.47;7.83;;;;;;;;;;6187189;23;20191;-91
2023/01/21 14:01:43;;;;;;;17.23;8.30;;;;;;;;;;6186398;23;20243;-93
2023/01/21 14:04:52;;;;;;;8.80;4.03;;;;;;;;;;6186600;23;20457;-93
2023/01/21 14:08:01;;;;;;;8.67;3.77;;;;;;;;;;6187710;23;20248;-91
2023/01/21 14:11:09;;;;;;;8.47;4.20;;;;;;;;;;6188502;23;20167;-90
2023/01/21 14:14:32;;;;;;;9.37;4.47;;;;;;;;;;6187750;23;20168;-92
2023/01/21 14:17:56;;;;;;;11.60;4.47;;;;;;;;;;6187571;23;20152;-91
2023/01/21 14:21:13;;;;;;;12.40;5.97;;;;;;;;;;6185741;23;20196;-91
2023/01/21 14:24:26;;;;;;;10.83;4.63;;;;;;;;;;6187152;23;20622;-93
2023/01/21 14:27:41;;;;;;;8.17;4.10;;;;;;;;;;6187964;23;20215;-89
2023/01/21 14:30:51;;;;;;;8.20;4.40;;;;;;;;;;6187370;23;20264;-93
2023/01/21 14:33:59;;;;;;;10.13;4.13;;;;;;;;;;6187189;23;20244;-91
2023/01/21 14:37:06;;;;;;;8.33;4.07;;;;;;;;;;6186501;23;20211;-89
2023/01/21 14:40:16;;;;;;;9.83;3.60;;;;;;;;;;6184949;23;20183;-91
2023/01/21 14:43:39;;;;;;;6.63;3.47;;;;;;;;;;6186864;23;20156;-92
2023/01/21 15:51:26;;;;;;;38.10;11.57;;;;;;;;;;6193664;23;20252;-91
2023/01/21 15:54:34;;;;;;;13.27;5.07;;;;;;;;;;6217836;23;20167;-92
2023/01/21 16:01:10;;;;;;;12.63;4.73;;;;;;;;;;6234991;23;20167;-91
2023/01/21 16:04:28;;;;;;;15.87;5.93;;;;;;;;;;6219459;23;20621;-92
2023/01/21 16:07:41;;;;;;;10.07;3.63;;;;;;;;;;6234175;23;20203;-90
2023/01/21 16:11:16;;;;;;;8.23;3.60;;;;;;;;;;6235263;23;20183;-90
2023/01/21 16:14:31;;;;;;;11.60;4.00;;;;;;;;;;6217421;23;20171;-91
2023/01/21 16:17:47;;;;;;;9.67;3.73;;;;;;;;;;6217775;23;20175;-90
2023/01/21 16:20:58;;;;;;;7.93;4.63;;;;;;;;;;6234693;23;20192;-91
2023/01/21 16:24:07;;;;;;;7.80;3.53;;;;;;;;;;6234054;23;20152;-94
2023/01/21 16:27:19;;;;;;;20.50;8.63;;;;;;;;;;6235347;23;20191;-92
2023/01/21 16:30:29;;;;;;;12.30;4.47;;;;;;;;;;6233523;23;20191;-90
2023/01/21 16:39:57;;;;;;;15.20;7.27;;;;;;;;;;6175801;23;20220;-91
2023/01/21 16:43:08;;;;;;;16.77;7.20;;;;;;;;;;6234544;23;20238;-92
2023/01/21 16:46:15;;;;;;;11.33;5.83;;;;;;;;;;6219227;23;20247;-91
2023/01/21 16:49:22;;;;;;;16.97;7.63;;;;;;;;;;6234283;23;20182;-92
2023/01/21 16:52:29;;;;;;;17.77;7.30;;;;;;;;;;6215782;23;20178;-92
2023/01/21 16:55:43;;;;;;;20.53;10.63;;;;;;;;;;6215943;23;20217;-91
2023/01/21 16:58:49;;;;;;;18.10;7.97;;;;;;;;;;6215997;23;20231;-89
2023/01/21 17:01:55;;;;;;;16.03;5.50;;;;;;;;;;6235737;23;20219;-90
2023/01/21 17:05:03;;;;;;;9.60;4.37;;;;;;;;;;6232797;23;20267;-90
2023/01/21 17:08:14;;;;;;;8.47;4.47;;;;;;;;;;6233385;23;20198;-90
2023/01/21 17:11:23;;;;;;;9.33;4.67;;;;;;;;;;6231962;23;20166;-90
2023/01/21 17:14:30;;;;;;;10.90;4.90;;;;;;;;;;6234350;23;20171;-91
2023/01/21 17:17:36;;;;;;;11.63;5.57;;;;;;;;;;6238994;23;20274;-89
2023/01/21 17:20:44;;;;;;;15.67;6.17;;;;;;;;;;6235765;22;20172;-91
2023/01/21 17:24:02;;;;;;;17.50;6.93;;;;;;;;;;6218218;23;20166;-90
2023/01/21 17:27:10;;;;;;;14.37;6.07;;;;;;;;;;6217492;23;20225;-89
2023/01/21 17:30:29;;;;;;;9.60;4.90;;;;;;;;;;6233521;23;20175;-90
2023/01/21 17:33:35;;;;;;;11.03;5.00;;;;;;;;;;6232646;23;20166;-91
2023/01/21 17:36:42;;;;;;;12.83;6.80;;;;;;;;;;6217476;23;20175;-92
2023/01/21 17:39:59;;;;;;;10.23;5.20;;;;;;;;;;6217451;23;20195;-91
2023/01/21 17:46:37;;;;;;;11.20;6.93;;;;;;;;;;6217033;23;20235;-92
2023/01/21 17:49:45;;;;;;;7.87;4.20;;;;;;;;;;6217083;23;20225;-91
2023/01/21 17:52:52;;;;;;;14.47;6.77;;;;;;;;;;6234979;23;20200;-91
2023/01/21 17:55:59;;;;;;;9.73;4.73;;;;;;;;;;6219059;23;20178;-89
2023/01/21 17:59:25;;;;;;;11.97;5.20;;;;;;;;;;6219941;23;20147;-91
2023/01/21 18:05:53;;;;;;;13.43;6.57;;;;;;;;;;6219928;23;20156;-91
2023/01/21 18:08:59;;;;;;;12.10;6.13;;;;;;;;;;6236349;23;20182;-92
2023/01/21 18:15:50;;;;;;;17.37;6.97;;;;;;;;;;6238909;23;20183;-91
2023/01/21 18:18:59;;;;;;;15.07;6.83;;;;;;;;;;6220853;23;20167;-92
2023/01/21 18:22:06;;;;;;;14.23;6.60;;;;;;;;;;6236717;22;20166;-93
2023/01/21 18:25:14;;;;;;;14.03;6.53;;;;;;;;;;6220630;23;20209;-92
2023/01/21 19:41:42;;;;;;;16.00;7.10;;;;;;;;;;6184012;23;20199;-91
2023/01/21 19:44:51;;;;;;;18.23;7.30;;;;;;;;;;6235939;23;20194;-90
2023/01/21 19:47:59;;;;;;;19.80;8.33;;;;;;;;;;6233310;23;20244;-91
2023/01/21 19:51:08;;;;;;;19.13;7.77;;;;;;;;;;6239586;23;20158;-91
2023/01/21 19:54:13;;;;;;;14.93;7.03;;;;;;;;;;6236792;23;20236;-92
2023/01/21 19:57:20;;;;;;;13.70;6.27;;;;;;;;;;6218367;23;20168;-92
2023/01/21 20:00:28;;;;;;;20.40;7.93;;;;;;;;;;6233877;23;20167;-92
2023/01/21 20:03:34;;;;;;;14.37;6.30;;;;;;;;;;6233037;23;20610;-93
2023/01/21 20:06:43;;;;;;;17.80;7.13;;;;;;;;;;6215706;23;20155;-91
2023/01/21 20:09:49;;;;;;;17.50;7.90;;;;;;;;;;6215028;23;20164;-92
2023/01/21 20:13:03;;;;;;;15.67;7.73;;;;;;;;;;6215952;23;20174;-91
2023/01/21 20:16:14;;;;;;;18.23;8.27;;;;;;;;;;6216517;23;20163;-91
2023/01/21 20:19:21;;;;;;;20.77;8.97;;;;;;;;;;6230241;23;20175;-92
2023/01/21 20:25:46;;;;;;;22.23;8.83;;;;;;;;;;6213107;23;20178;-90
2023/01/21 20:28:53;;;;;;;24.20;8.43;;;;;;;;;;6231655;23;20218;-89
2023/01/21 20:31:59;;;;;;;18.00;7.80;;;;;;;;;;6234720;23;20186;-94
2023/01/21 20:35:04;;;;;;;19.20;7.90;;;;;;;;;;6232252;23;20155;-91
2023/01/21 20:38:13;;;;;;;23.90;8.93;;;;;;;;;;6235720;23;20190;-93
2023/01/21 20:41:18;;;;;;;21.23;8.20;;;;;;;;;;6233453;23;20302;-93
2023/01/21 22:58:53;;;;;;;17.07;8.03;;;;;;;;;;6186745;23;20211;-92
2023/01/21 23:01:58;;;;;;;18.23;7.77;;;;;;;;;;6228849;23;20167;-90
2023/01/21 23:05:04;;;;;;;14.63;6.87;;;;;;;;;;6230485;23;20195;-90
2023/01/21 23:08:10;;;;;;;15.93;7.33;;;;;;;;;;6231997;23;20211;-93
2023/01/21 23:11:18;;;;;;;16.10;7.83;;;;;;;;;;6230677;22;20239;-91
2023/01/21 23:14:25;;;;;;;16.43;7.77;;;;;;;;;;6215807;23;20151;-91
2023/01/21 23:17:30;;;;;;;18.87;7.43;;;;;;;;;;6230248;23;20167;-90
2023/01/21 23:20:37;;;;;;;19.27;8.43;;;;;;;;;;6233718;23;20179;-93
2023/01/21 23:23:42;;;;;;;28.10;11.93;;;;;;;;;;6232730;23;20171;-90
2023/01/21 23:26:47;;;;;;;19.83;8.10;;;;;;;;;;6214893;23;20218;-90
2023/01/21 23:29:54;;;;;;;15.93;7.50;;;;;;;;;;6214173;23;20178;-92
2023/01/21 23:32:59;;;;;;;24.77;9.10;;;;;;;;;;6234113;23;20617;-91
2023/01/21 23:36:08;;;;;;;21.37;8.23;;;;;;;;;;6232699;23;20199;-91
2023/01/21 23:39:13;;;;;;;18.17;7.57;;;;;;;;;;6215272;23;20286;-90
2023/01/21 23:42:21;;;;;;;21.23;9.57;;;;;;;;;;6232731;23;20147;-93
2023/01/21 23:45:27;;;;;;;20.40;9.13;;;;;;;;;;6214804;23;20159;-92
2023/01/21 23:48:33;;;;;;;20.87;8.47;;;;;;;;;;6231243;23;20299;-94
2023/01/21 23:51:38;;;;;;;19.83;7.93;;;;;;;;;;6231644;23;20171;-90
2023/01/21 23:54:44;;;;;;;16.17;7.30;;;;;;;;;;6233731;23;20154;-90
2023/01/21 23:57:49;;;;;;;22.13;9.73;;;;;;;;;;6232315;23;20222;-90
